Hellas Apollo — 9HA4239 — position and weather

sailwx.info

Track history (hours):
 
Tides and Currents Weather Stations Pressure Air Temp Water Temp Dewpoint Dewpoint Depression Visibility Wind Speed Wind Dir Waves Ship Positions

Hellas Apollo

Last reported at 2018-Jun-17 15:28 UTC. Time now 2018-Jun-20 19:14 UTC.
Position N 09°14' W 079°56'.

Length 205 m; draft 11.8 m.

Type: Tanker. MMSI: 249430000.

Date/timePositionNaut miles runAvg speedWind from/ knotsBaromVisibWave heightAir tempDewpointWater temp
2018-Jun-17 15:28N 09°14' W 079°56'0 0.1
2018-Jun-17 14:51N 09°14' W 079°56'0 0.1
2018-Jun-17 14:24N 09°14' W 079°56'0 0.1
2018-Jun-17 14:00N 09°14' W 079°56'0 0.1
2018-Jun-17 13:12N 09°14' W 079°56'0 0.0
2018-Jun-17 13:00N 09°14' W 079°56'0 0.0
2018-Jun-17 12:30N 09°14' W 079°56'0 0.0
2018-Jun-17 11:51N 09°14' W 079°56'0 0.0
2018-Jun-17 11:30N 09°14' W 079°56'0 0.0
2018-Jun-17 09:39N 09°14' W 079°56'0 0.1
2018-Jun-17 09:30N 09°14' W 079°56'0 0.1
2018-Jun-17 09:00N 09°14' W 079°56'2 4.0
2018-Jun-17 08:30N 09°16' W 079°55'0 0.6
2018-Jun-17 07:58N 09°16' W 079°55'0 0.4
2018-Jun-17 07:07N 09°17' W 079°55'0 1.1
2018-Jun-17 06:57N 09°17' W 079°55'1 2.5
2018-Jun-17 06:29N 09°18' W 079°55'3 6.6
2018-Jun-17 06:00N 09°21' W 079°55'2 4.9
2018-Jun-17 05:30N 09°24' W 079°55'4 8.3
2018-Jun-17 05:00N 09°28' W 079°55'4 7.2
2018-Jun-17 04:30N 09°30' W 079°58'0 0.7
2018-Jun-17 04:00N 09°30' W 079°58'0 0.8
2018-Jun-17 03:29N 09°30' W 079°59'0 0.5
2018-Jun-17 02:54N 09°30' W 079°58'0 0.1
2018-Jun-17 02:29N 09°30' W 079°58'1 1.3
2018-Jun-17 01:56N 09°30' W 079°58'0 0.5
2018-Jun-17 01:30N 09°30' W 079°57'1 1.8
2018-Jun-17 00:43N 09°30' W 079°56'1 4.0
2018-Jun-17 00:30N 09°31' W 079°55'6 8.4
2018-Jun-16 23:46N 09°36' W 079°51'312.5
2018-Jun-16 23:30N 09°39' W 079°50'  
2018-Jun-08 16:26N 09°39' W 079°45'614.0
2018-Jun-08 16:00N 09°34' W 079°49'713.8
2018-Jun-08 15:30N 09°28' W 079°53'612.0
2018-Jun-08 15:00N 09°23' W 079°55'5 9.2
2018-Jun-08 14:30N 09°18' W 079°55'2 3.2
2018-Jun-08 14:00N 09°17' W 079°55'0 0.4
2018-Jun-08 13:31N 09°16' W 079°55'0 0.7
2018-Jun-08 13:01N 09°16' W 079°55'1 2.2
2018-Jun-08 12:31N 09°15' W 079°55'4 8.7
2018-Jun-08 12:01N 09°11' W 079°53'  
Track history (hours):
 
Tides and Currents Weather Stations Pressure Air Temp Water Temp Dewpoint Dewpoint Depression Visibility Wind Speed Wind Dir Waves Ship Positions

Hellas Apollo

Last reported at 2018-Jun-17 15:28 UTC. Time now 2018-Jun-20 19:14 UTC.
Position N 09°14' W 079°56'.

Length 205 m; draft 11.8 m.

Type: Tanker. MMSI: 249430000.

Date/timePositionNaut miles runAvg speedWind from/ knotsBaromVisibWave heightAir tempDewpointWater temp
2018-Jun-17 15:28N 09°14' W 079°56'0 0.1
2018-Jun-17 14:51N 09°14' W 079°56'0 0.1
2018-Jun-17 14:24N 09°14' W 079°56'0 0.1
2018-Jun-17 14:00N 09°14' W 079°56'0 0.1
2018-Jun-17 13:12N 09°14' W 079°56'0 0.0
2018-Jun-17 13:00N 09°14' W 079°56'0 0.0
2018-Jun-17 12:30N 09°14' W 079°56'0 0.0
2018-Jun-17 11:51N 09°14' W 079°56'0 0.0
2018-Jun-17 11:30N 09°14' W 079°56'0 0.0
2018-Jun-17 09:39N 09°14' W 079°56'0 0.1
2018-Jun-17 09:30N 09°14' W 079°56'0 0.1
2018-Jun-17 09:00N 09°14' W 079°56'2 4.0
2018-Jun-17 08:30N 09°16' W 079°55'0 0.6
2018-Jun-17 07:58N 09°16' W 079°55'0 0.4
2018-Jun-17 07:07N 09°17' W 079°55'0 1.1
2018-Jun-17 06:57N 09°17' W 079°55'1 2.5
2018-Jun-17 06:29N 09°18' W 079°55'3 6.6
2018-Jun-17 06:00N 09°21' W 079°55'2 4.9
2018-Jun-17 05:30N 09°24' W 079°55'4 8.3
2018-Jun-17 05:00N 09°28' W 079°55'4 7.2
2018-Jun-17 04:30N 09°30' W 079°58'0 0.7
2018-Jun-17 04:00N 09°30' W 079°58'0 0.8
2018-Jun-17 03:29N 09°30' W 079°59'0 0.5
2018-Jun-17 02:54N 09°30' W 079°58'0 0.1
2018-Jun-17 02:29N 09°30' W 079°58'1 1.3
2018-Jun-17 01:56N 09°30' W 079°58'0 0.5
2018-Jun-17 01:30N 09°30' W 079°57'1 1.8
2018-Jun-17 00:43N 09°30' W 079°56'1 4.0
2018-Jun-17 00:30N 09°31' W 079°55'6 8.4
2018-Jun-16 23:46N 09°36' W 079°51'312.5
2018-Jun-16 23:30N 09°39' W 079°50'  
2018-Jun-08 16:26N 09°39' W 079°45'614.0
2018-Jun-08 16:00N 09°34' W 079°49'713.8
2018-Jun-08 15:30N 09°28' W 079°53'612.0
2018-Jun-08 15:00N 09°23' W 079°55'5 9.2
2018-Jun-08 14:30N 09°18' W 079°55'2 3.2
2018-Jun-08 14:00N 09°17' W 079°55'0 0.4
2018-Jun-08 13:31N 09°16' W 079°55'0 0.7
2018-Jun-08 13:01N 09°16' W 079°55'1 2.2
2018-Jun-08 12:31N 09°15' W 079°55'4 8.7
2018-Jun-08 12:01N 09°11' W 079°53'  

Dump ship's entire track history